Time;durP1;ratioP1;P1;durP2;ratioP2;P2;SDS_P1;SDS_P2;PMS_P1;PMS_P2;Temp;Humidity;BMP_temperature;BMP_pressure;BME280_temperature;BME280_humidity;BME280_pressure;Samples;Min_cycle;Max_cycle;Signal;HPM_P1;HPM_P2
2022/07/30 00:03:00;;;;;;;;;;;;;;;25.46;50.23;100076.91;5345255;32;35335;-73
2022/07/30 00:06:02;;;;;;;;;;;;;;;25.59;49.76;100071.03;5369011;32;35889;-73
2022/07/30 00:09:04;;;;;;;;;;;;;;;25.70;49.48;100078.81;5359608;32;35270;-72
2022/07/30 00:12:06;;;;;;;;;;;;;;;26.44;47.45;100075.22;5373659;32;36118;-73
2022/07/30 00:15:08;;;;;;;;;;;;;;;25.85;48.82;100079.03;5359351;32;35391;-72
2022/07/30 00:18:10;;;;;;;;;;;;;;;25.69;49.37;100081.66;5363793;32;35815;-72
2022/07/30 00:21:13;;;;;;;;;;;;;;;25.82;49.21;100082.88;5366762;32;34645;-72
2022/07/30 00:24:35;;;;;;;;;;;;;;;25.36;50.28;100082.38;5353688;32;45644;-73
2022/07/30 00:27:38;;;;;;;;;;;;;;;24.53;53.01;100091.97;5354290;32;36234;-72
2022/07/30 00:30:40;;;;;;;;;;;;;;;24.85;52.11;100083.28;5356633;32;35228;-75
2022/07/30 00:33:42;;;;;;;;;;;;;;;25.98;49.04;100071.31;5374641;32;36850;-72
2022/07/30 00:36:44;;;;;;;;;;;;;;;25.64;49.94;100071.41;5348179;32;35122;-73
2022/07/30 00:39:46;;;;;;;;;;;;;;;25.59;49.97;100062.97;5346690;32;35327;-73
2022/07/30 00:42:48;;;;;;;;;;;;;;;24.55;53.26;100066.66;5359766;32;36659;-73
2022/07/30 00:45:50;;;;;;;;;;;;;;;25.46;50.57;100062.59;5337847;32;35139;-72
2022/07/30 00:48:52;;;;;;;;;;;;;;;25.14;51.63;100071.37;5385363;32;35420;-73
2022/07/30 00:51:54;;;;;;;;;;;;;;;24.51;53.54;100072.50;5330892;32;34778;-74
2022/07/30 00:54:56;;;;;;;;;;;;;;;25.70;50.16;100067.19;5373714;32;35842;-73
2022/07/30 00:57:58;;;;;;;;;;;;;;;25.51;50.58;100076.41;5359971;32;45019;-72
2022/07/30 01:01:00;;;;;;;;;;;;;;;25.50;50.64;100072.84;5344612;32;34862;-73
2022/07/30 01:04:02;;;;;;;;;;;;;;;25.91;49.37;100073.81;5373466;32;36912;-73
2022/07/30 01:07:04;;;;;;;;;;;;;;;25.75;49.55;100070.25;5343241;32;35238;-73
2022/07/30 01:10:06;;;;;;;;;;;;;;;25.76;49.87;100066.56;5371855;32;36001;-74
2022/07/30 01:13:08;;;;;;;;;;;;;;;25.79;49.86;100068.94;5346252;32;35922;-73
2022/07/30 01:16:11;;;;;;;;;;;;;;;26.20;48.72;100067.09;5353604;32;35978;-73
2022/07/30 01:22:58;;;;;;;;;;;;;;;25.35;50.89;100067.25;5344003;32;35659;-73
2022/07/30 01:26:03;;;;;;;;;;;;;;;25.43;50.97;100054.84;5370711;32;47799;-73
2022/07/30 01:29:05;;;;;;;;;;;;;;;25.93;49.59;100062.88;5344419;32;36066;-74
2022/07/30 01:32:07;;;;;;;;;;;;;;;25.10;51.88;100069.00;5352743;32;35276;-72
2022/07/30 01:35:10;;;;;;;;;;;;;;;25.70;50.25;100068.06;5361472;32;35497;-74
2022/07/30 01:38:12;;;;;;;;;;;;;;;24.75;53.11;100077.19;5331700;32;35182;-72
2022/07/30 01:41:13;;;;;;;;;;;;;;;25.22;51.88;100074.94;5359825;32;35828;-72
2022/07/30 01:44:15;;;;;;;;;;;;;;;25.22;51.32;100069.56;5344912;32;35610;-73
2022/07/30 01:47:24;;;;;;;;;;;;;;;25.60;50.17;100067.34;5358710;32;36045;-73
2022/07/30 01:50:26;;;;;;;;;;;;;;;25.06;51.35;100064.13;5344045;32;35762;-72
2022/07/30 01:53:28;;;;;;;;;;;;;;;25.79;49.30;100059.00;5353414;32;44196;-74
2022/07/30 01:56:30;;;;;;;;;;;;;;;24.99;51.56;100053.16;5348341;32;35375;-72
2022/07/30 01:59:35;;;;;;;;;;;;;;;24.91;52.09;100052.25;5343291;32;35934;-73
2022/07/30 02:02:39;;;;;;;;;;;;;;;24.53;53.59;100040.94;5373273;32;35530;-74
2022/07/30 02:05:42;;;;;;;;;;;;;;;24.09;55.23;100049.00;5358332;32;36097;-73
2022/07/30 02:08:44;;;;;;;;;;;;;;;24.85;53.05;100035.75;5362814;32;35309;-73
2022/07/30 02:15:09;;;;;;;;;;;;;;;25.43;51.21;100036.00;5357899;32;46057;-73
2022/07/30 02:18:22;;;;;;;;;;;;;;;25.18;51.78;100029.72;5362367;32;35785;-73
2022/07/30 02:21:25;;;;;;;;;;;;;;;25.30;51.53;100029.25;5344871;32;35581;-72
2022/07/30 02:24:37;;;;;;;;;;;;;;;24.40;54.27;100019.87;5361097;32;46341;-74
2022/07/30 02:27:39;;;;;;;;;;;;;;;24.67;53.62;100010.81;5360384;32;35327;-74
2022/07/30 02:30:54;;;;;;;;;;;;;;;24.61;53.44;100002.56;5352854;32;34817;-73
2022/07/30 02:33:57;;;;;;;;;;;;;;;24.84;53.10;100003.66;5363228;32;35459;-73
2022/07/30 02:36:59;;;;;;;;;;;;;;;24.26;54.75;100010.50;5326286;32;44646;-72
2022/07/30 02:40:01;;;;;;;;;;;;;;;23.93;55.97;100017.47;5363474;32;36374;-74
2022/07/30 02:43:04;;;;;;;;;;;;;;;23.95;56.08;100011.94;5345757;32;35606;-72
2022/07/30 02:46:06;;;;;;;;;;;;;;;23.78;56.75;100009.13;5374433;32;35257;-72
2022/07/30 02:49:08;;;;;;;;;;;;;;;23.60;57.17;100002.87;5345758;32;36079;-73
2022/07/30 02:52:14;;;;;;;;;;;;;;;23.31;58.54;100010.28;5354132;32;35850;-73
2022/07/30 02:55:16;;;;;;;;;;;;;;;24.76;53.80;100001.78;5370228;32;35493;-74
2022/07/30 02:58:20;;;;;;;;;;;;;;;24.15;55.54;100017.97;5345883;32;35436;-72
2022/07/30 03:01:22;;;;;;;;;;;;;;;24.05;55.78;100016.25;5385731;32;35823;-73
2022/07/30 03:04:24;;;;;;;;;;;;;;;23.94;56.15;100012.94;5343992;32;35567;-72
2022/07/30 03:07:26;;;;;;;;;;;;;;;23.73;57.15;100010.59;5373221;32;35808;-72
2022/07/30 03:10:28;;;;;;;;;;;;;;;24.01;56.16;100024.75;5344965;32;43388;-74
2022/07/30 03:13:30;;;;;;;;;;;;;;;23.23;58.64;100017.25;5359109;32;35728;-74
2022/07/30 03:16:31;;;;;;;;;;;;;;;23.39;58.21;100005.88;5357896;32;35397;-73
2022/07/30 03:19:35;;;;;;;;;;;;;;;23.29;58.39;100013.13;5345643;32;36090;-74
2022/07/30 03:22:39;;;;;;;;;;;;;;;23.51;57.76;100009.19;5375856;32;35710;-73
2022/07/30 03:25:41;;;;;;;;;;;;;;;23.68;56.85;100003.00;5359597;32;35853;-72
2022/07/30 03:28:43;;;;;;;;;;;;;;;23.90;56.42;100006.22;5358827;32;35453;-72
2022/07/30 03:31:45;;;;;;;;;;;;;;;23.91;55.95;100021.31;5347051;32;36270;-72
2022/07/30 03:34:47;;;;;;;;;;;;;;;23.67;56.83;100013.87;5359832;32;35494;-72
2022/07/30 03:37:49;;;;;;;;;;;;;;;24.61;53.81;100010.63;5338333;32;35280;-72
2022/07/30 03:40:51;;;;;;;;;;;;;;;23.09;58.82;100007.03;5342455;32;35737;-72
2022/07/30 03:43:53;;;;;;;;;;;;;;;23.44;57.89;100014.31;5348843;32;34966;-73
2022/07/30 03:46:56;;;;;;;;;;;;;;;23.80;57.26;100011.66;5359504;32;35190;-73
2022/07/30 03:49:58;;;;;;;;;;;;;;;23.61;57.98;100007.28;5356914;32;43700;-74
2022/07/30 03:53:00;;;;;;;;;;;;;;;23.87;56.91;100009.19;5351188;32;35088;-74
2022/07/30 03:56:02;;;;;;;;;;;;;;;23.40;58.44;100012.06;5339813;32;35494;-73
2022/07/30 03:59:04;;;;;;;;;;;;;;;23.48;58.64;100009.47;5357668;32;35400;-72
2022/07/30 04:02:06;;;;;;;;;;;;;;;22.94;60.11;100009.38;5359831;32;35739;-73
2022/07/30 04:05:08;;;;;;;;;;;;;;;23.24;59.86;100007.34;5373647;32;34704;-73
2022/07/30 04:08:10;;;;;;;;;;;;;;;23.73;58.09;100016.81;5346422;32;34919;-73
2022/07/30 04:11:12;;;;;;;;;;;;;;;24.02;56.94;100013.87;5350403;32;35112;-72
2022/07/30 04:14:14;;;;;;;;;;;;;;;24.37;55.66;100000.56;5364493;32;36797;-73
2022/07/30 04:17:25;;;;;;;;;;;;;;;23.18;59.75;100022.22;5355696;32;34626;-74
2022/07/30 04:20:32;;;;;;;;;;;;;;;23.42;59.37;100012.75;5374087;32;35445;-74
2022/07/30 04:23:34;;;;;;;;;;;;;;;23.30;60.27;100019.31;5345873;32;46727;-75
2022/07/30 04:26:55;;;;;;;;;;;;;;;23.61;59.19;100011.78;5374435;32;35652;-74
2022/07/30 04:29:57;;;;;;;;;;;;;;;22.77;62.12;100028.88;5341073;32;44823;-73
2022/07/30 04:33:00;;;;;;;;;;;;;;;23.60;59.29;100018.16;5345941;32;37206;-73
2022/07/30 04:36:08;;;;;;;;;;;;;;;23.16;60.87;100029.56;5368414;32;35697;-72
2022/07/30 04:39:13;;;;;;;;;;;;;;;23.21;60.69;100031.81;5327231;32;36829;-73
2022/07/30 04:42:16;;;;;;;;;;;;;;;22.91;61.87;100033.78;5373866;32;34716;-73
2022/07/30 04:45:21;;;;;;;;;;;;;;;23.37;60.12;100031.97;5358651;32;35247;-73
2022/07/30 04:48:25;;;;;;;;;;;;;;;23.15;61.63;100027.88;5367871;32;35320;-72
2022/07/30 04:51:28;;;;;;;;;;;;;;;22.97;62.20;100024.31;5351094;32;34801;-73
2022/07/30 04:54:32;;;;;;;;;;;;;;;23.22;61.17;100028.97;5345549;32;43402;-72
2022/07/30 04:57:34;;;;;;;;;;;;;;;23.58;60.17;100031.72;5362289;32;35324;-73
2022/07/30 05:00:38;;;;;;;;;;;;;;;23.95;58.67;100026.19;5343061;32;35285;-74
2022/07/30 05:03:42;;;;;;;;;;;;;;;23.86;58.36;100026.31;5356936;32;35366;-73
2022/07/30 05:06:44;;;;;;;;;;;;;;;23.58;60.12;100028.19;5354963;32;36038;-72
2022/07/30 05:09:46;;;;;;;;;;;;;;;22.85;62.60;100041.53;5349334;32;35622;-72
2022/07/30 05:12:48;;;;;;;;;;;;;;;22.88;62.76;100028.72;5355256;32;35723;-73
2022/07/30 05:15:50;;;;;;;;;;;;;;;23.40;61.16;100028.16;5350049;32;36206;-72
2022/07/30 05:18:52;;;;;;;;;;;;;;;23.43;60.73;100023.31;5373159;32;36532;-74
2022/07/30 05:21:53;;;;;;;;;;;;;;;24.25;57.83;100032.16;5357425;32;35492;-72
2022/07/30 05:24:56;;;;;;;;;;;;;;;24.03;58.88;100028.97;5372038;32;36158;-74
2022/07/30 05:27:57;;;;;;;;;;;;;;;24.17;57.86;100038.31;5355738;32;35500;-74
2022/07/30 05:30:59;;;;;;;;;;;;;;;25.02;55.05;100019.72;5360539;32;37501;-72
2022/07/30 05:34:01;;;;;;;;;;;;;;;25.41;53.96;100020.03;5368787;32;36087;-72
2022/07/30 05:37:05;;;;;;;;;;;;;;;25.15;54.44;100030.87;5341391;32;37198;-72
2022/07/30 05:40:11;;;;;;;;;;;;;;;24.65;56.05;100028.09;5361392;32;37131;-73
2022/07/30 05:43:12;;;;;;;;;;;;;;;24.84;55.46;100026.00;5355965;32;35342;-73
2022/07/30 05:46:14;;;;;;;;;;;;;;;24.94;55.09;100025.06;5367903;32;37100;-73
2022/07/30 05:49:16;;;;;;;;;;;;;;;25.27;54.94;100028.75;5356303;32;35345;-72
2022/07/30 05:52:18;;;;;;;;;;;;;;;27.04;49.29;100024.50;5357778;32;35392;-74
2022/07/30 05:55:20;;;;;;;;;;;;;;;26.96;49.38;100031.62;5373010;32;34837;-72
2022/07/30 05:58:22;;;;;;;;;;;;;;;28.24;45.60;100036.63;5331792;32;34814;-73
2022/07/30 06:01:24;;;;;;;;;;;;;;;26.30;50.63;100050.78;5354543;32;36974;-72
2022/07/30 06:04:26;;;;;;;;;;;;;;;25.80;52.14;100047.22;5355736;32;35982;-72
2022/07/30 06:07:28;;;;;;;;;;;;;;;26.27;50.54;100045.72;5373248;32;44826;-72
2022/07/30 06:10:30;;;;;;;;;;;;;;;25.11;53.95;100041.09;5354661;32;35148;-73
2022/07/30 06:13:32;;;;;;;;;;;;;;;24.61;55.96;100040.19;5342018;32;35234;-73
2022/07/30 06:16:34;;;;;;;;;;;;;;;25.53;53.36;100040.25;5373266;32;35415;-75
2022/07/30 06:19:36;;;;;;;;;;;;;;;26.15;51.54;100039.84;5342876;32;35251;-70
2022/07/30 06:22:38;;;;;;;;;;;;;;;25.38;53.43;100042.75;5374216;32;35233;-74
2022/07/30 06:25:40;;;;;;;;;;;;;;;25.91;52.15;100043.38;5354416;32;35677;-72
2022/07/30 06:28:42;;;;;;;;;;;;;;;26.09;51.58;100045.91;5373574;32;35783;-72
2022/07/30 06:31:44;;;;;;;;;;;;;;;26.02;51.74;100050.25;5356942;32;35166;-73
2022/07/30 06:34:46;;;;;;;;;;;;;;;25.89;52.18;100048.94;5355080;32;35882;-73
2022/07/30 06:37:47;;;;;;;;;;;;;;;25.62;53.29;100049.16;5348349;32;35295;-74
2022/07/30 06:41:08;;;;;;;;;;;;;;;26.27;51.93;100045.72;5352410;32;37757;-72
2022/07/30 06:44:10;;;;;;;;;;;;;;;25.79;53.61;100048.22;5372111;32;35556;-73
2022/07/30 06:47:12;;;;;;;;;;;;;;;25.66;53.86;100054.06;5356715;32;35404;-73
2022/07/30 06:50:14;;;;;;;;;;;;;;;25.02;56.19;100058.19;5365539;32;36285;-73
2022/07/30 06:53:16;;;;;;;;;;;;;;;25.71;54.41;100058.97;5351434;32;36422;-74
2022/07/30 06:56:18;;;;;;;;;;;;;;;25.86;53.92;100053.78;5340878;32;35926;-73
2022/07/30 06:59:20;;;;;;;;;;;;;;;26.51;52.20;100055.66;5374163;32;35568;-74
2022/07/30 07:02:22;;;;;;;;;;;;;;;27.97;47.65;100048.81;5354979;32;36389;-73
2022/07/30 07:05:27;;;;;;;;;;;;;;;29.09;44.70;100034.38;5369723;32;35496;-73
2022/07/30 07:08:30;;;;;;;;;;;;;;;29.00;44.19;100040.94;5357668;32;45764;-73
2022/07/30 07:11:32;;;;;;;;;;;;;;;28.69;44.94;100040.25;5362742;32;35141;-73
2022/07/30 07:14:34;;;;;;;;;;;;;;;27.67;47.55;100050.53;5367065;32;36324;-73
2022/07/30 07:17:36;;;;;;;;;;;;;;;27.98;46.47;100040.53;5339462;32;34803;-75
2022/07/30 07:20:38;;;;;;;;;;;;;;;27.99;46.63;100036.81;5360593;32;35075;-74
2022/07/30 07:23:40;;;;;;;;;;;;;;;26.78;49.51;100028.31;5357465;32;36101;-72
2022/07/30 07:26:43;;;;;;;;;;;;;;;27.94;46.68;100024.88;5374848;32;35628;-72
2022/07/30 07:29:45;;;;;;;;;;;;;;;29.00;44.06;100005.78;5357291;32;35891;-72
2022/07/30 07:33:06;;;;;;;;;;;;;;;28.23;45.78;100027.66;5358664;32;44406;-73
2022/07/30 07:36:08;;;;;;;;;;;;;;;27.48;47.55;100017.56;5367199;32;34860;-73
2022/07/30 07:39:10;;;;;;;;;;;;;;;27.61;47.00;100018.84;5339010;32;38012;-72
2022/07/30 07:42:15;;;;;;;;;;;;;;;27.80;46.61;100029.19;5373404;32;35606;-73
2022/07/30 07:45:17;;;;;;;;;;;;;;;26.67;49.79;100026.00;5344691;32;35287;-73
2022/07/30 07:48:19;;;;;;;;;;;;;;;26.95;48.95;100015.62;5372439;32;34391;-72
2022/07/30 07:51:21;;;;;;;;;;;;;;;27.26;48.17;100007.59;5360208;32;37214;-74
2022/07/30 07:54:43;;;;;;;;;;;;;;;27.25;47.72;100020.25;5356242;32;35216;-73
2022/07/30 07:57:45;;;;;;;;;;;;;;;28.03;46.00;100016.53;5374787;32;35239;-74
2022/07/30 08:00:48;;;;;;;;;;;;;;;27.17;47.90;100041.00;5358146;32;35839;-73
2022/07/30 08:03:50;;;;;;;;;;;;;;;27.48;45.61;100060.75;5370904;32;35627;-72
2022/07/30 08:06:52;;;;;;;;;;;;;;;26.69;47.57;100070.63;5357923;32;35871;-72
2022/07/30 08:09:54;;;;;;;;;;;;;;;26.79;47.24;100081.19;5347846;32;34795;-72
2022/07/30 08:12:56;;;;;;;;;;;;;;;27.23;46.43;100073.50;5366416;32;36317;-72
2022/07/30 08:15:58;;;;;;;;;;;;;;;27.33;45.71;100065.22;5342495;32;44232;-72
2022/07/30 08:19:00;;;;;;;;;;;;;;;27.25;45.70;100054.47;5372835;32;35600;-74
2022/07/30 08:22:02;;;;;;;;;;;;;;;26.87;45.45;100035.38;5356988;32;35536;-75
2022/07/30 08:25:04;;;;;;;;;;;;;;;26.88;45.31;100037.06;5372957;32;34923;-73
2022/07/30 08:28:06;;;;;;;;;;;;;;;27.04;45.63;100032.59;5356773;32;35963;-73
2022/07/30 08:31:28;;;;;;;;;;;;;;;27.21;46.93;100042.34;5350507;32;45384;-73
2022/07/30 08:34:30;;;;;;;;;;;;;;;27.86;48.18;100063.59;5382807;32;35188;-73
2022/07/30 08:37:32;;;;;;;;;;;;;;;28.32;46.14;100072.53;5311146;32;35303;-74
2022/07/30 08:40:34;;;;;;;;;;;;;;;27.86;46.95;100078.94;5368954;32;35648;-74
2022/07/30 08:43:36;;;;;;;;;;;;;;;28.30;46.05;100068.31;5354090;32;35331;-74
2022/07/30 08:46:42;;;;;;;;;;;;;;;27.51;48.10;100073.06;5373044;32;34960;-73
2022/07/30 08:49:48;;;;;;;;;;;;;;;27.28;48.54;100081.09;5348757;32;36504;-74
2022/07/30 08:52:52;;;;;;;;;;;;;;;27.72;47.08;100086.78;5357811;32;34661;-72
2022/07/30 08:55:54;;;;;;;;;;;;;;;28.41;45.17;100077.87;5374445;32;35434;-74
2022/07/30 08:59:00;;;;;;;;;;;;;;;27.62;47.58;100072.62;5343507;32;44475;-73
2022/07/30 09:02:01;;;;;;;;;;;;;;;28.48;45.94;100068.00;5374399;32;36034;-75
2022/07/30 09:05:09;;;;;;;;;;;;;;;27.97;47.19;100065.88;5356912;32;35289;-73
2022/07/30 09:08:11;;;;;;;;;;;;;;;27.95;47.19;100067.06;5350728;32;35443;-73
2022/07/30 09:11:18;;;;;;;;;;;;;;;26.60;48.37;100076.19;5351984;32;36033;-73
2022/07/30 09:14:20;;;;;;;;;;;;;;;26.40;49.22;100087.31;5341575;32;35488;-73
2022/07/30 09:17:50;;;;;;;;;;;;;;;27.20;46.44;100073.88;5373140;32;45969;-73
2022/07/30 09:20:52;;;;;;;;;;;;;;;27.57;45.86;100072.34;5357134;32;35201;-74
2022/07/30 09:24:01;;;;;;;;;;;;;;;27.76;45.14;100073.78;5368067;32;37148;-72
2022/07/30 09:27:05;;;;;;;;;;;;;;;26.81;47.48;100071.13;5365537;32;45321;-73
2022/07/30 09:30:08;;;;;;;;;;;;;;;27.43;45.92;100063.13;5355700;32;35014;-73
2022/07/30 09:33:10;;;;;;;;;;;;;;;27.52;45.56;100067.47;5372192;32;36862;-73
2022/07/30 09:36:14;;;;;;;;;;;;;;;26.98;46.62;100058.41;5347657;32;36307;-73
2022/07/30 09:39:35;;;;;;;;;;;;;;;25.93;49.40;100071.81;5343393;32;35777;-73
2022/07/30 09:42:38;;;;;;;;;;;;;;;26.03;50.12;100068.97;5357399;32;38141;-73
2022/07/30 09:45:54;;;;;;;;;;;;;;;26.51;49.45;100069.97;5356451;32;36142;-74
2022/07/30 09:49:12;;;;;;;;;;;;;;;26.15;49.87;100074.87;5371762;32;43445;-72
2022/07/30 09:52:25;;;;;;;;;;;;;;;26.32;51.78;100073.00;5356020;32;34814;-72
2022/07/30 09:55:30;;;;;;;;;;;;;;;25.62;55.17;100076.91;5372094;32;44550;-72
2022/07/30 09:58:41;;;;;;;;;;;;;;;25.31;56.79;100108.97;5357221;32;37649;-72
2022/07/30 10:01:50;;;;;;;;;;;;;;;25.29;56.21;100118.16;5349564;32;35287;-73
2022/07/30 10:05:14;;;;;;;;;;;;;;;24.07;62.48;100155.66;5367157;32;44736;-72
2022/07/30 10:08:16;;;;;;;;;;;;;;;23.92;64.66;100165.25;5341921;32;35428;-72
2022/07/30 10:11:24;;;;;;;;;;;;;;;23.60;69.02;100147.75;5355148;32;35538;-72
2022/07/30 10:14:32;;;;;;;;;;;;;;;22.57;80.25;100108.44;5345781;32;46500;-73
2022/07/30 10:17:42;;;;;;;;;;;;;;;23.09;76.12;100094.66;5343108;32;34707;-74
2022/07/30 10:20:44;;;;;;;;;;;;;;;22.48;80.34;100087.87;5360149;32;35900;-72
2022/07/30 10:23:46;;;;;;;;;;;;;;;22.79;78.32;100090.34;5355011;32;33848;-72
2022/07/30 10:26:52;;;;;;;;;;;;;;;22.58;79.73;100102.09;5360780;32;35813;-74
2022/07/30 10:29:53;;;;;;;;;;;;;;;22.77;76.59;100100.34;5344002;32;35410;-72
2022/07/30 10:32:57;;;;;;;;;;;;;;;22.62;79.28;100110.69;5367156;32;36317;-72
2022/07/30 10:35:58;;;;;;;;;;;;;;;22.90;76.86;100123.19;5364143;32;45269;-73
2022/07/30 10:39:03;;;;;;;;;;;;;;;22.66;80.29;100129.00;5324359;32;35560;-73
2022/07/30 10:42:12;;;;;;;;;;;;;;;23.48;75.54;100130.16;5353346;32;37403;-72
2022/07/30 10:45:48;;;;;;;;;;;;;;;23.44;74.69;100132.31;5359741;32;34615;-72
2022/07/30 10:48:50;;;;;;;;;;;;;;;23.50;74.40;100128.16;5355299;32;35165;-73
2022/07/30 10:51:55;;;;;;;;;;;;;;;23.66;75.12;100133.78;5368156;32;35474;-72
2022/07/30 10:54:58;;;;;;;;;;;;;;;23.60;74.88;100126.28;5357819;32;43066;-72
2022/07/30 10:58:07;;;;;;;;;;;;;;;23.68;76.71;100118.34;5374271;32;36460;-73
2022/07/30 11:01:10;;;;;;;;;;;;;;;24.43;72.41;100107.38;5355042;32;35499;-74
2022/07/30 11:04:19;;;;;;;;;;;;;;;24.18;74.91;100095.53;5359240;32;35408;-74
2022/07/30 11:07:21;;;;;;;;;;;;;;;23.49;76.74;100087.09;5355825;32;35663;-73
2022/07/30 11:10:35;;;;;;;;;;;;;;;23.93;74.19;100079.22;5358710;32;35185;-71
2022/07/30 11:14:12;;;;;;;;;;;;;;;23.17;79.10;100073.28;5360443;32;48062;-73
2022/07/30 11:17:15;;;;;;;;;;;;;;;24.08;74.58;100067.91;5317185;32;35132;-73
2022/07/30 11:20:19;;;;;;;;;;;;;;;24.36;74.81;100058.81;5347005;32;35212;-72
2022/07/30 11:23:25;;;;;;;;;;;;;;;24.54;71.20;100050.72;5360168;32;35232;-72
2022/07/30 11:26:42;;;;;;;;;;;;;;;24.34;75.87;100046.50;5358048;32;35543;-71
2022/07/30 11:29:47;;;;;;;;;;;;;;;24.28;74.11;100032.72;5374298;32;37399;-73
2022/07/30 11:32:53;;;;;;;;;;;;;;;24.77;73.88;100019.59;5358292;32;34923;-73
2022/07/30 11:36:10;;;;;;;;;;;;;;;24.36;73.96;100015.84;5352736;32;36138;-72
2022/07/30 11:39:12;;;;;;;;;;;;;;;25.25;69.09;100020.00;5329562;32;36516;-73
2022/07/30 11:42:28;;;;;;;;;;;;;;;25.14;69.21;100031.06;5356271;32;34577;-73
2022/07/30 11:45:30;;;;;;;;;;;;;;;25.63;68.52;100040.09;5360414;32;44643;-73
2022/07/30 11:48:32;;;;;;;;;;;;;;;25.32;66.69;100046.09;5357837;32;35476;-73
2022/07/30 11:51:41;;;;;;;;;;;;;;;25.77;67.60;100030.56;5373564;32;35826;-74
2022/07/30 11:54:52;;;;;;;;;;;;;;;26.71;63.45;100030.00;5357906;32;34397;-73
2022/07/30 11:57:54;;;;;;;;;;;;;;;26.62;63.88;100020.28;5359804;32;35920;-72
2022/07/30 12:01:00;;;;;;;;;;;;;;;26.55;62.47;100022.81;5370436;32;35655;-72
2022/07/30 12:04:03;;;;;;;;;;;;;;;27.97;56.00;100011.03;5357403;32;46316;-73
2022/07/30 12:07:05;;;;;;;;;;;;;;;28.21;53.59;100004.53;5368624;32;35906;-72
2022/07/30 12:10:17;;;;;;;;;;;;;;;29.52;49.98;99993.91;5357828;32;35947;-73
2022/07/30 12:13:28;;;;;;;;;;;;;;;30.77;47.23;99987.03;5371525;32;45039;-73
2022/07/30 12:16:49;;;;;;;;;;;;;;;29.20;50.76;99975.41;5368504;32;36083;-72
2022/07/30 12:19:51;;;;;;;;;;;;;;;28.36;52.33;99967.62;5367334;32;35967;-73
2022/07/30 12:22:53;;;;;;;;;;;;;;;29.22;50.73;99957.13;5360276;32;35114;-74
2022/07/30 12:25:56;;;;;;;;;;;;;;;27.79;54.63;99963.56;5358282;32;35876;-74
2022/07/30 12:29:03;;;;;;;;;;;;;;;26.71;57.39;99966.16;5360458;32;44853;-74
2022/07/30 12:32:05;;;;;;;;;;;;;;;25.87;59.97;99977.41;5339948;32;35481;-74
2022/07/30 12:35:08;;;;;;;;;;;;;;;26.17;59.26;99978.56;5344542;32;35559;-73
2022/07/30 12:38:10;;;;;;;;;;;;;;;26.40;57.31;99974.16;5346899;32;35136;-74
2022/07/30 12:41:12;;;;;;;;;;;;;;;25.97;59.59;99974.56;5344584;32;34842;-72
2022/07/30 12:44:32;;;;;;;;;;;;;;;26.46;57.51;99968.09;5374257;32;35372;-74
2022/07/30 12:47:34;;;;;;;;;;;;;;;27.42;55.09;99964.31;5356315;32;43972;-72
2022/07/30 12:50:36;;;;;;;;;;;;;;;27.45;53.40;99963.13;5368464;32;35265;-72
2022/07/30 12:53:38;;;;;;;;;;;;;;;25.71;58.25;99954.00;5363918;32;36036;-72
2022/07/30 12:56:40;;;;;;;;;;;;;;;26.96;55.04;99957.97;5356461;32;35635;-72
2022/07/30 12:59:42;;;;;;;;;;;;;;;26.81;53.82;99952.50;5371649;32;35697;-72
2022/07/30 13:02:44;;;;;;;;;;;;;;;26.17;55.96;99962.41;5356891;32;35591;-72
2022/07/30 13:05:47;;;;;;;;;;;;;;;25.98;56.19;99960.91;5373012;32;35944;-72
2022/07/30 13:08:53;;;;;;;;;;;;;;;26.85;53.08;99963.75;5343160;32;35307;-72
2022/07/30 13:11:55;;;;;;;;;;;;;;;26.84;52.55;99967.47;5364320;32;34326;-74
2022/07/30 13:14:57;;;;;;;;;;;;;;;27.62;50.01;99970.06;5365857;32;35123;-74
2022/07/30 13:17:59;;;;;;;;;;;;;;;27.17;50.04;99977.09;5357147;32;44892;-74
2022/07/30 13:21:02;;;;;;;;;;;;;;;27.38;50.23;99981.88;5372907;32;36038;-74
2022/07/30 13:24:04;;;;;;;;;;;;;;;28.18;47.40;99983.31;5357117;32;36664;-73
2022/07/30 13:27:05;;;;;;;;;;;;;;;27.25;49.67;99973.53;5371828;32;35023;-74
2022/07/30 13:30:09;;;;;;;;;;;;;;;27.07;50.36;99967.56;5355427;32;35244;-72
2022/07/30 13:33:11;;;;;;;;;;;;;;;27.11;50.76;99944.59;5364129;32;35174;-71
2022/07/30 13:36:13;;;;;;;;;;;;;;;26.83;51.74;99942.34;5340227;32;35513;-72
2022/07/30 13:39:15;;;;;;;;;;;;;;;26.63;52.13;99941.09;5339258;32;35820;-73
2022/07/30 13:42:17;;;;;;;;;;;;;;;26.45;52.57;99944.00;5373169;32;34807;-71
2022/07/30 13:45:19;;;;;;;;;;;;;;;26.32;52.80;99941.84;5355216;32;36369;-74
2022/07/30 13:48:21;;;;;;;;;;;;;;;25.67;55.21;99944.56;5374043;32;35272;-72
2022/07/30 13:51:23;;;;;;;;;;;;;;;26.27;53.87;99936.12;5338770;32;35648;-72
2022/07/30 13:54:25;;;;;;;;;;;;;;;25.97;53.79;99939.56;5364301;32;35095;-73
2022/07/30 13:57:27;;;;;;;;;;;;;;;25.60;54.18;99951.62;5364304;32;35526;-71
2022/07/30 14:00:31;;;;;;;;;;;;;;;25.66;55.19;99954.50;5356590;32;44845;-73
2022/07/30 14:03:34;;;;;;;;;;;;;;;26.48;53.52;99967.09;5376237;32;35440;-72
2022/07/30 14:06:36;;;;;;;;;;;;;;;26.35;53.65;99971.13;5350214;32;35546;-74
2022/07/30 14:09:38;;;;;;;;;;;;;;;25.86;55.61;99976.56;5374197;32;36011;-73
2022/07/30 14:12:53;;;;;;;;;;;;;;;25.99;55.78;99975.22;5358388;32;35363;-74
2022/07/30 14:15:55;;;;;;;;;;;;;;;26.46;53.69;99989.62;5344651;32;35522;-74
2022/07/30 14:18:57;;;;;;;;;;;;;;;25.65;55.84;99987.81;5382376;32;35275;-74
2022/07/30 14:21:59;;;;;;;;;;;;;;;25.90;54.79;99998.63;5339496;32;44741;-73
2022/07/30 14:25:01;;;;;;;;;;;;;;;25.21;56.85;99995.28;5375220;32;34719;-73
2022/07/30 14:28:03;;;;;;;;;;;;;;;25.50;56.81;99993.97;5356726;32;36093;-73
2022/07/30 14:31:05;;;;;;;;;;;;;;;25.00;57.91;99995.69;5366779;32;35501;-72
2022/07/30 14:34:07;;;;;;;;;;;;;;;24.38;59.56;100005.75;5359272;32;35886;-71
2022/07/30 14:37:09;;;;;;;;;;;;;;;24.73;58.16;100004.81;5341213;32;35699;-72
2022/07/30 14:40:15;;;;;;;;;;;;;;;24.50;58.11;100006.34;5353523;32;36053;-72
2022/07/30 14:43:18;;;;;;;;;;;;;;;24.09;59.23;100013.22;5357935;32;35244;-71
2022/07/30 14:46:20;;;;;;;;;;;;;;;24.21;59.44;99994.03;5374319;32;37685;-73
2022/07/30 14:49:22;;;;;;;;;;;;;;;25.43;54.67;99990.28;5357851;32;36339;-75
2022/07/30 14:52:25;;;;;;;;;;;;;;;24.50;57.29;100000.97;5371775;32;35814;-73
2022/07/30 14:55:27;;;;;;;;;;;;;;;23.67;59.63;99985.22;5360591;32;37526;-73
2022/07/30 14:58:29;;;;;;;;;;;;;;;24.72;56.06;99976.22;5359297;32;37780;-73
2022/07/30 15:01:31;;;;;;;;;;;;;;;25.07;55.59;99974.41;5374179;32;35205;-75
2022/07/30 15:04:33;;;;;;;;;;;;;;;25.07;55.80;99979.78;5343567;32;35242;-74
2022/07/30 15:07:36;;;;;;;;;;;;;;;24.35;57.96;99984.59;5374842;32;35549;-73
2022/07/30 15:10:39;;;;;;;;;;;;;;;24.59;57.76;99981.19;5357171;32;35653;-73
2022/07/30 15:13:42;;;;;;;;;;;;;;;25.72;54.35;99979.91;5356584;32;35986;-73
2022/07/30 15:16:51;;;;;;;;;;;;;;;24.49;58.12;99984.03;5367486;32;35672;-72
2022/07/30 15:19:54;;;;;;;;;;;;;;;24.97;56.73;99973.66;5357976;32;36169;-72
2022/07/30 15:22:55;;;;;;;;;;;;;;;24.64;57.08;99981.56;5375756;32;34655;-73
2022/07/30 15:25:58;;;;;;;;;;;;;;;25.30;54.91;99980.00;5357463;32;35678;-73
2022/07/30 15:29:00;;;;;;;;;;;;;;;26.31;51.13;99983.25;5375818;32;44329;-73
2022/07/30 15:32:02;;;;;;;;;;;;;;;26.20;51.31;99986.28;5343182;32;35974;-71
2022/07/30 15:35:04;;;;;;;;;;;;;;;25.34;53.85;99987.56;5365635;32;34788;-73
2022/07/30 15:38:12;;;;;;;;;;;;;;;25.12;54.13;99994.41;5344307;32;35875;-73
2022/07/30 15:41:14;;;;;;;;;;;;;;;25.18;54.32;99984.81;5353879;32;34850;-73
2022/07/30 15:44:16;;;;;;;;;;;;;;;24.88;54.82;99990.75;5375091;32;35998;-73
2022/07/30 15:47:21;;;;;;;;;;;;;;;25.56;53.56;99999.53;5358009;32;35737;-74
2022/07/30 15:50:23;;;;;;;;;;;;;;;25.77;52.41;100001.81;5373271;32;35095;-74
2022/07/30 15:53:25;;;;;;;;;;;;;;;24.57;55.10;100010.91;5358874;32;36184;-72
2022/07/30 15:56:28;;;;;;;;;;;;;;;25.17;53.03;100012.72;5360079;32;35277;-72